Time;durP1;ratioP1;P1;durP2;ratioP2;P2;SDS_P1;SDS_P2;PMS_P1;PMS_P2;Temp;Humidity;BMP_temperature;BMP_pressure;BME280_temperature;BME280_humidity;BME280_pressure;Samples;Min_cycle;Max_cycle;Signal;HPM_P1;HPM_P2
2022/12/01 00:00:10;;;;;;;26.23;14.97;;;;;;;3.79;100.00;98684.25;4935321;29;20236;-79
2022/12/01 00:02:37;;;;;;;26.97;15.07;;;;;;;3.77;100.00;98673.84;4935287;29;20223;-79
2022/12/01 00:05:04;;;;;;;28.13;15.90;;;;;;;3.75;100.00;98680.88;4935624;29;20213;-81
2022/12/01 00:07:30;;;;;;;27.87;15.53;;;;;;;3.79;100.00;98671.19;4935548;29;20234;-81
2022/12/01 00:12:42;;;;;;;27.90;15.03;;;;;;;3.71;100.00;98681.88;4955547;29;20286;-80
2022/12/01 00:15:10;;;;;;;28.97;15.73;;;;;;;3.68;100.00;98683.75;4953358;29;20212;-80
2022/12/01 00:17:36;;;;;;;29.10;15.17;;;;;;;3.69;100.00;98683.72;4935436;29;20216;-80
2022/12/01 00:20:04;;;;;;;28.97;15.80;;;;;;;3.67;100.00;98682.03;4935481;29;20620;-79
2022/12/01 00:22:30;;;;;;;26.83;15.00;;;;;;;3.63;100.00;98685.66;4935432;29;20212;-80
2022/12/01 00:24:58;;;;;;;27.93;15.03;;;;;;;3.59;100.00;98686.66;4935018;29;20212;-81
2022/12/01 00:27:25;;;;;;;26.63;14.50;;;;;;;3.59;100.00;98692.75;4935014;29;20216;-80
2022/12/01 00:29:51;;;;;;;28.87;14.73;;;;;;;3.65;100.00;98684.69;4934989;29;20236;-82
2022/12/01 00:32:18;;;;;;;25.67;14.03;;;;;;;3.61;100.00;98690.94;4935658;29;20213;-81
2022/12/01 00:34:44;;;;;;;27.77;14.80;;;;;;;3.63;100.00;98694.38;4935109;29;20217;-81
2022/12/01 00:37:11;;;;;;;25.83;14.20;;;;;;;3.63;100.00;98690.88;4934821;29;20212;-80
2022/12/01 00:39:37;;;;;;;26.97;14.37;;;;;;;3.72;100.00;98691.44;4934448;29;20240;-80
2022/12/01 00:42:05;;;;;;;23.47;13.43;;;;;;;3.71;100.00;98694.09;4934699;29;20712;-80
2022/12/01 00:44:32;;;;;;;29.00;14.93;;;;;;;3.66;100.00;98689.03;4935243;29;20542;-80
2022/12/01 00:46:58;;;;;;;25.50;14.17;;;;;;;3.71;100.00;98681.88;4934846;29;20212;-80
2022/12/01 00:49:25;;;;;;;27.03;15.07;;;;;;;3.71;100.00;98679.28;4934812;29;20244;-79
2022/12/01 00:51:51;;;;;;;25.90;15.83;;;;;;;3.66;100.00;98686.41;4934802;29;20214;-80
2022/12/01 00:54:17;;;;;;;26.70;14.67;;;;;;;3.71;100.00;98683.63;4934936;29;20212;-79
2022/12/01 00:56:44;;;;;;;27.07;14.83;;;;;;;3.72;100.00;98690.59;4934563;29;20485;-81
2022/12/01 00:59:12;;;;;;;29.37;16.03;;;;;;;3.72;100.00;98686.19;4934373;29;20236;-80
2022/12/01 01:01:39;;;;;;;27.10;15.27;;;;;;;3.72;100.00;98683.59;4935041;29;20238;-81
2022/12/01 01:04:06;;;;;;;25.13;14.60;;;;;;;3.66;100.00;98686.41;4934744;29;20218;-81
2022/12/01 01:06:33;;;;;;;24.67;14.87;;;;;;;3.69;100.00;98683.72;4934186;29;20701;-82
2022/12/01 01:08:59;;;;;;;26.63;15.30;;;;;;;3.67;100.00;98687.28;4934546;29;20764;-80
2022/12/01 01:11:26;;;;;;;28.33;15.30;;;;;;;3.66;100.00;98680.34;4934366;29;20230;-80
2022/12/01 01:13:52;;;;;;;27.63;15.20;;;;;;;3.65;100.00;98679.47;4935195;29;20214;-78
2022/12/01 01:16:22;;;;;;;28.13;14.87;;;;;;;3.65;100.00;98678.59;4934702;29;20233;-80
2022/12/01 01:18:49;;;;;;;30.33;15.57;;;;;;;3.64;100.00;98687.34;4934022;29;20247;-79
2022/12/01 01:21:18;;;;;;;25.47;13.97;;;;;;;3.59;100.00;98684.91;4934235;29;20212;-81
2022/12/01 01:23:44;;;;;;;25.60;15.00;;;;;;;3.63;100.00;98691.75;4934538;29;20209;-80
2022/12/01 01:26:13;;;;;;;25.90;13.57;;;;;;;3.53;100.00;98698.16;4934197;29;20208;-79
2022/12/01 01:28:40;;;;;;;20.90;13.70;;;;;;;3.55;100.00;98706.81;4934487;29;20228;-79
2022/12/01 01:31:08;;;;;;;23.90;14.10;;;;;;;3.57;100.00;98712.84;4934167;29;20246;-79
2022/12/01 01:33:36;;;;;;;24.93;13.73;;;;;;;3.60;100.00;98702.28;4934663;29;20589;-79
2022/12/01 01:36:03;;;;;;;24.83;14.10;;;;;;;3.58;100.00;98698.00;4934176;29;20223;-79
2022/12/01 01:38:31;;;;;;;28.07;13.97;;;;;;;3.52;100.00;98696.47;4934269;29;20243;-79
2022/12/01 01:40:57;;;;;;;22.77;13.73;;;;;;;3.50;100.00;98695.69;4934500;29;20642;-79
2022/12/01 01:43:41;;;;;;;22.47;13.27;;;;;;;3.49;100.00;98693.94;4934474;29;20221;-79
2022/12/01 01:46:09;;;;;;;25.33;13.80;;;;;;;3.54;100.00;98696.44;4934146;29;20223;-79
2022/12/01 01:48:40;;;;;;;26.70;13.43;;;;;;;3.53;100.00;98695.56;4934273;29;20224;-80
2022/12/01 01:51:08;;;;;;;25.47;14.30;;;;;;;3.53;100.00;98694.69;4937839;29;20220;-79
2022/12/01 01:53:34;;;;;;;26.03;14.47;;;;;;;3.48;100.00;98692.22;4938076;29;20208;-79
2022/12/01 01:56:02;;;;;;;28.70;14.37;;;;;;;3.44;100.00;98711.53;4938150;29;20212;-79
2022/12/01 01:58:30;;;;;;;23.30;13.17;;;;;;;3.41;100.00;98711.63;4937090;29;20722;-80
2022/12/01 02:00:57;;;;;;;27.00;14.90;;;;;;;3.47;100.00;98706.22;4937347;29;20232;-80
2022/12/01 02:03:24;;;;;;;24.47;13.67;;;;;;;3.41;100.00;98695.94;4937517;29;20208;-79
2022/12/01 02:05:52;;;;;;;23.80;13.20;;;;;;;3.40;100.00;98694.25;4937283;29;20220;-80
2022/12/01 02:08:19;;;;;;;22.67;13.17;;;;;;;3.38;100.00;98701.28;4937368;29;20238;-80
2022/12/01 02:11:01;;;;;;;21.60;12.23;;;;;;;3.40;100.00;98696.00;4937601;29;20214;-79
2022/12/01 02:13:38;;;;;;;23.53;12.93;;;;;;;3.46;100.00;98691.44;4937253;29;20291;-79
2022/12/01 02:16:12;;;;;;;23.17;13.17;;;;;;;3.53;100.00;98692.94;4936810;29;20595;-79
2022/12/01 02:18:51;;;;;;;20.27;12.03;;;;;;;3.50;100.00;98685.22;4937501;29;20624;-80
2022/12/01 02:21:35;;;;;;;23.50;13.30;;;;;;;3.55;100.00;98677.22;4941863;29;20222;-79
2022/12/01 02:24:36;;;;;;;21.20;12.53;;;;;;;3.52;100.00;98683.41;4958401;29;20214;-79
2022/12/01 02:27:14;;;;;;;25.17;13.33;;;;;;;3.58;100.00;98680.59;4958789;29;20263;-80
2022/12/01 02:30:03;;;;;;;21.20;12.67;;;;;;;3.60;100.00;98660.47;4941258;29;20250;-79
2022/12/01 02:32:42;;;;;;;24.17;13.70;;;;;;;3.61;100.00;98651.72;4936988;29;20222;-79
2022/12/01 02:35:16;;;;;;;22.83;12.53;;;;;;;3.49;100.00;98653.91;4936880;29;20216;-79
2022/12/01 02:37:49;;;;;;;22.63;12.80;;;;;;;3.49;100.00;98657.34;4936515;29;20219;-79
2022/12/01 02:40:23;;;;;;;22.20;12.47;;;;;;;3.40;100.00;98649.84;4936702;29;20243;-79
2022/12/01 02:43:01;;;;;;;21.03;12.13;;;;;;;3.48;100.00;98653.03;4936856;29;20237;-79
2022/12/01 02:45:35;;;;;;;18.90;11.67;;;;;;;3.38;100.00;98650.78;4936728;29;20218;-79
2022/12/01 02:48:06;;;;;;;21.40;11.03;;;;;;;3.36;100.00;98665.66;4936557;29;20216;-79
2022/12/01 02:50:36;;;;;;;19.50;11.03;;;;;;;3.32;100.00;98664.91;4936467;29;20239;-79
2022/12/01 02:53:05;;;;;;;22.17;12.17;;;;;;;3.40;100.00;98655.06;4936249;29;20251;-79
2022/12/01 02:55:31;;;;;;;21.03;11.87;;;;;;;3.39;100.00;98661.19;4936396;29;20212;-79
2022/12/01 02:57:58;;;;;;;23.27;12.63;;;;;;;3.35;100.00;98666.53;4935961;29;20215;-79
2022/12/01 03:00:25;;;;;;;21.20;12.53;;;;;;;3.34;100.00;98673.53;4935486;29;20604;-79
2022/12/01 03:03:20;;;;;;;22.47;11.67;;;;;;;3.25;100.00;98684.25;4935957;29;20255;-79
2022/12/01 03:05:53;;;;;;;22.60;11.90;;;;;;;3.30;100.00;98679.75;4936160;29;20227;-79
2022/12/01 03:08:26;;;;;;;19.37;11.40;;;;;;;3.32;100.00;98669.28;4936325;29;20232;-79
2022/12/01 03:10:54;;;;;;;21.43;12.67;;;;;;;3.33;100.00;98661.38;4936829;29;20197;-78
2022/12/01 03:13:32;;;;;;;24.57;12.43;;;;;;;3.37;100.00;98657.75;4936374;29;20215;-79
2022/12/01 03:16:07;;;;;;;21.07;12.07;;;;;;;3.37;100.00;98656.91;4936240;29;20225;-78
2022/12/01 03:18:38;;;;;;;25.17;12.57;;;;;;;3.29;100.00;98659.78;4936232;29;20361;-79
2022/12/01 03:21:09;;;;;;;22.13;11.93;;;;;;;3.32;100.00;98659.69;4936320;29;20222;-78
2022/12/01 03:23:39;;;;;;;23.00;12.90;;;;;;;3.31;100.00;98660.56;4936189;29;20216;-79
2022/12/01 03:26:09;;;;;;;23.13;12.57;;;;;;;3.23;100.00;98662.56;4936118;29;20661;-79
2022/12/01 03:28:40;;;;;;;23.10;12.27;;;;;;;3.24;100.00;98671.28;4936079;29;20773;-79
2022/12/01 03:31:11;;;;;;;24.10;14.00;;;;;;;3.20;100.00;98667.91;4935928;29;20243;-79
2022/12/01 03:33:46;;;;;;;26.50;13.87;;;;;;;3.23;100.00;98670.41;4936164;29;20592;-79
2022/12/01 03:36:18;;;;;;;22.17;12.93;;;;;;;3.12;100.00;98664.66;4935743;29;20203;-79
2022/12/01 03:38:52;;;;;;;23.10;12.70;;;;;;;3.11;100.00;98665.56;4935786;29;20236;-79
2022/12/01 03:41:23;;;;;;;26.47;13.97;;;;;;;3.12;100.00;98674.28;4936053;29;20226;-79
2022/12/01 03:43:55;;;;;;;24.83;13.80;;;;;;;3.12;100.00;98672.50;4936171;29;20573;-80
2022/12/01 03:46:29;;;;;;;23.33;12.23;;;;;;;3.10;100.00;98682.16;4935857;29;20218;-79
2022/12/01 03:48:57;;;;;;;25.13;13.03;;;;;;;3.06;100.00;98685.75;4936193;29;20247;-80
2022/12/01 03:51:31;;;;;;;25.93;14.33;;;;;;;3.10;100.00;98679.53;4935645;29;20212;-80
2022/12/01 03:54:03;;;;;;;25.57;13.60;;;;;;;3.13;100.00;98683.81;4935476;29;20215;-80
2022/12/01 03:56:36;;;;;;;25.97;13.77;;;;;;;3.10;100.00;98689.97;4935711;29;20216;-80
2022/12/01 03:59:07;;;;;;;24.73;13.90;;;;;;;3.11;100.00;98681.25;4935251;29;20288;-79
2022/12/01 04:01:34;;;;;;;24.50;13.37;;;;;;;3.09;100.00;98683.06;4935066;29;20216;-80
2022/12/01 04:04:06;;;;;;;24.30;13.97;;;;;;;3.10;100.00;98684.75;4935262;29;20227;-79
2022/12/01 04:06:33;;;;;;;27.10;14.03;;;;;;;3.16;100.00;98687.19;4934860;29;20208;-79
2022/12/01 04:09:00;;;;;;;24.57;13.30;;;;;;;3.08;100.00;98685.69;4935155;29;20232;-79
2022/12/01 04:14:11;;;;;;;25.67;14.37;;;;;;;3.18;100.00;98684.53;4935140;29;20255;-79
2022/12/01 04:16:37;;;;;;;24.20;13.60;;;;;;;3.15;100.00;98688.09;4934509;29;20688;-79
2022/12/01 04:19:05;;;;;;;25.33;14.27;;;;;;;3.15;100.00;98688.09;4934680;29;20730;-79
2022/12/01 04:21:32;;;;;;;28.70;15.67;;;;;;;3.11;100.00;98681.25;4934937;29;20712;-79
2022/12/01 04:24:01;;;;;;;26.87;14.40;;;;;;;3.09;100.00;98683.06;4934796;29;20219;-79
2022/12/01 04:26:27;;;;;;;24.77;14.23;;;;;;;3.07;100.00;98677.00;4934527;29;20235;-79
2022/12/01 04:28:54;;;;;;;23.63;13.30;;;;;;;3.01;100.00;98685.03;4934588;29;20238;-79
2022/12/01 04:31:20;;;;;;;28.60;15.00;;;;;;;3.07;100.00;98684.00;4934971;29;20216;-79
2022/12/01 04:33:47;;;;;;;27.33;14.93;;;;;;;3.09;100.00;98692.63;4935399;29;20218;-79
2022/12/01 04:36:15;;;;;;;27.83;16.03;;;;;;;3.03;100.00;98693.69;4952522;29;20204;-78
2022/12/01 04:38:41;;;;;;;27.73;15.03;;;;;;;3.07;100.00;98694.44;4956601;29;20227;-82
2022/12/01 04:41:09;;;;;;;25.50;13.97;;;;;;;3.13;100.00;98689.03;4957452;29;20248;-79
2022/12/01 04:43:36;;;;;;;26.90;14.43;;;;;;;3.11;100.00;98686.47;4936105;29;20211;-80
2022/12/01 04:46:03;;;;;;;27.97;15.33;;;;;;;3.10;100.00;98691.72;4934534;29;20215;-80
2022/12/01 04:48:29;;;;;;;27.03;14.67;;;;;;;3.18;100.00;98695.81;4934626;29;20236;-79
2022/12/01 04:50:56;;;;;;;24.23;14.20;;;;;;;3.17;100.00;98681.06;4935130;29;20208;-80
2022/12/01 04:53:23;;;;;;;25.20;13.53;;;;;;;3.12;100.00;98685.56;4934584;29;20697;-79
2022/12/01 04:55:50;;;;;;;25.27;14.70;;;;;;;3.10;100.00;98682.16;4934967;29;20560;-79
2022/12/01 04:58:17;;;;;;;24.43;14.20;;;;;;;3.13;100.00;98678.59;4934353;29;20232;-78
2022/12/01 05:00:43;;;;;;;26.63;14.53;;;;;;;3.09;100.00;98671.75;4966254;23;20244;-79
2022/12/01 05:03:10;;;;;;;24.00;13.93;;;;;;;3.07;100.00;98668.34;4953460;29;20208;-78
2022/12/01 05:05:36;;;;;;;26.23;15.23;;;;;;;3.14;100.00;98668.09;4953125;29;20566;-79
2022/12/01 05:08:03;;;;;;;27.07;14.63;;;;;;;3.12;100.00;98667.28;4953054;29;20646;-78
2022/12/01 05:10:31;;;;;;;27.87;15.10;;;;;;;3.13;100.00;98662.91;4935952;29;20234;-78
2022/12/01 05:12:59;;;;;;;26.87;14.97;;;;;;;3.07;100.00;98669.16;4933748;29;20212;-78
2022/12/01 05:15:25;;;;;;;26.20;14.43;;;;;;;3.05;100.00;98683.19;4933788;29;20582;-79
2022/12/01 05:17:51;;;;;;;25.17;13.80;;;;;;;3.17;100.00;98681.06;4933880;29;20207;-78
2022/12/01 05:23:05;;;;;;;27.77;13.53;;;;;;;3.17;100.00;98685.44;4933811;29;20650;-78
2022/12/01 05:25:33;;;;;;;23.47;13.53;;;;;;;3.13;100.00;98684.66;4936437;29;20222;-78
2022/12/01 05:27:59;;;;;;;21.30;12.87;;;;;;;3.10;100.00;98682.16;4937618;29;20228;-78
2022/12/01 05:30:26;;;;;;;23.57;12.47;;;;;;;3.13;100.00;98683.81;4937662;29;20232;-79
2022/12/01 05:32:52;;;;;;;24.57;13.20;;;;;;;3.13;100.00;98686.44;4937667;29;20574;-78
2022/12/01 05:35:19;;;;;;;24.63;13.17;;;;;;;3.09;100.00;98690.88;4937532;29;20208;-78
2022/12/01 05:37:45;;;;;;;22.20;12.47;;;;;;;3.04;100.00;98700.63;4936969;29;20589;-78
2022/12/01 05:40:12;;;;;;;23.70;13.70;;;;;;;3.14;100.00;98706.41;4936993;29;20240;-78
2022/12/01 05:42:40;;;;;;;28.30;15.43;;;;;;;3.19;100.00;98689.69;4937127;29;20213;-78
2022/12/01 05:45:08;;;;;;;25.73;14.90;;;;;;;3.19;100.00;98694.91;4937281;29;20231;-78
2022/12/01 05:47:34;;;;;;;24.60;13.93;;;;;;;3.17;100.00;98682.81;4936952;29;20303;-79
2022/12/01 05:50:01;;;;;;;25.43;14.37;;;;;;;3.16;100.00;98687.19;4937084;29;20232;-78
2022/12/01 05:52:28;;;;;;;22.60;13.13;;;;;;;3.12;100.00;98688.16;4937349;29;20216;-78
2022/12/01 05:54:54;;;;;;;26.17;13.57;;;;;;;3.10;100.00;98694.34;4936962;29;20216;-78
2022/12/01 05:57:21;;;;;;;24.83;13.60;;;;;;;3.09;100.00;98693.50;4936835;29;20212;-78
2022/12/01 05:59:48;;;;;;;24.80;14.43;;;;;;;3.11;100.00;98686.47;4936817;29;20243;-79
2022/12/01 06:02:15;;;;;;;25.90;14.80;;;;;;;3.15;100.00;98695.06;4936810;29;20216;-78
2022/12/01 06:04:41;;;;;;;28.63;14.43;;;;;;;3.14;100.00;98691.59;4936963;29;20216;-79
2022/12/01 06:07:08;;;;;;;27.33;15.00;;;;;;;3.16;100.00;98695.00;4936574;29;20220;-79
2022/12/01 06:09:34;;;;;;;22.93;13.23;;;;;;;3.12;100.00;98700.38;4936888;29;20235;-79
2022/12/01 06:12:01;;;;;;;24.03;13.53;;;;;;;3.13;100.00;98705.53;4936560;29;20212;-79
2022/12/01 06:14:27;;;;;;;24.40;13.40;;;;;;;3.17;100.00;98696.72;4936555;29;20260;-79
2022/12/01 06:16:55;;;;;;;27.33;14.93;;;;;;;3.20;100.00;98701.00;4936580;29;20220;-79
2022/12/01 06:19:22;;;;;;;26.60;15.20;;;;;;;3.13;100.00;98704.69;4936457;29;20232;-79
2022/12/01 06:21:48;;;;;;;25.03;14.70;;;;;;;3.17;100.00;98691.50;4936791;29;20247;-78
2022/12/01 06:24:15;;;;;;;27.80;15.13;;;;;;;3.17;100.00;98699.34;4936470;29;20215;-78
2022/12/01 06:26:41;;;;;;;28.40;15.83;;;;;;;3.10;100.00;98705.66;4936149;29;20209;-79
2022/12/01 06:29:09;;;;;;;29.37;14.53;;;;;;;3.08;100.00;98706.59;4936456;29;20228;-79
2022/12/01 06:31:36;;;;;;;26.10;15.27;;;;;;;3.16;100.00;98710.69;4936201;29;20714;-79
2022/12/01 06:34:03;;;;;;;25.77;14.27;;;;;;;3.10;100.00;98710.88;4936388;29;20686;-78
2022/12/01 06:36:30;;;;;;;28.13;15.60;;;;;;;3.09;100.00;98723.97;4934648;29;20216;-79
2022/12/01 06:38:56;;;;;;;26.97;14.50;;;;;;;3.18;100.00;98724.53;4936291;29;20554;-78
2022/12/01 06:41:23;;;;;;;29.00;16.93;;;;;;;3.22;100.00;98715.72;4935954;29;20733;-78
2022/12/01 06:43:49;;;;;;;25.33;13.97;;;;;;;3.12;100.00;98719.50;4936201;29;20222;-78
2022/12/01 06:46:16;;;;;;;23.93;14.30;;;;;;;3.12;100.00;98724.72;4935864;29;20218;-78
2022/12/01 06:48:42;;;;;;;25.40;14.80;;;;;;;3.16;100.00;98721.13;4936056;29;20232;-78
2022/12/01 06:51:10;;;;;;;25.47;13.33;;;;;;;3.10;100.00;98720.44;4936512;29;20291;-79
2022/12/01 06:53:37;;;;;;;28.73;15.20;;;;;;;3.09;100.00;98724.84;4936226;29;20598;-79
2022/12/01 06:56:04;;;;;;;29.43;15.23;;;;;;;3.03;100.00;98725.03;4935592;29;20228;-79
2022/12/01 06:58:31;;;;;;;27.43;14.40;;;;;;;3.06;100.00;98717.06;4935894;29;20267;-78
2022/12/01 07:00:58;;;;;;;24.63;14.37;;;;;;;3.18;100.00;98724.53;4935815;29;20239;-78
2022/12/01 07:03:24;;;;;;;26.77;14.43;;;;;;;3.09;100.00;98718.75;4935723;29;20227;-80
2022/12/01 07:05:57;;;;;;;25.67;13.93;;;;;;;3.07;100.00;98726.63;4935536;29;20216;-81
2022/12/01 07:08:25;;;;;;;25.50;14.17;;;;;;;3.13;100.00;98741.25;4935695;29;20322;-81
2022/12/01 07:10:57;;;;;;;23.93;13.27;;;;;;;3.12;100.00;98739.56;4935646;29;20231;-81
2022/12/01 07:13:23;;;;;;;26.23;14.60;;;;;;;3.24;100.00;98742.63;4935572;29;20679;-81
2022/12/01 07:15:50;;;;;;;22.23;12.70;;;;;;;3.22;100.00;98741.84;4935400;29;20216;-81
2022/12/01 07:18:16;;;;;;;26.30;15.37;;;;;;;3.27;100.00;98728.63;4935194;29;20683;-81
2022/12/01 07:20:43;;;;;;;27.13;14.07;;;;;;;3.30;100.00;98725.94;4935000;29;20243;-81
2022/12/01 07:23:09;;;;;;;26.23;14.07;;;;;;;3.25;100.00;98727.84;4935580;29;20215;-81
2022/12/01 07:25:37;;;;;;;23.20;13.50;;;;;;;3.17;100.00;98729.84;4934868;29;20683;-81
2022/12/01 07:28:04;;;;;;;23.77;13.70;;;;;;;3.11;100.00;98733.47;4935102;29;20216;-82
2022/12/01 07:30:30;;;;;;;23.80;12.70;;;;;;;3.12;100.00;98745.63;4935018;29;20228;-85
2022/12/01 07:32:57;;;;;;;26.73;13.30;;;;;;;3.10;100.00;98747.44;4934986;29;20217;-82
2022/12/01 07:35:23;;;;;;;26.77;14.87;;;;;;;3.11;100.00;98743.91;4935140;29;20212;-81
2022/12/01 07:37:54;;;;;;;23.30;13.00;;;;;;;3.10;100.00;98751.78;4934868;29;20216;-82
2022/12/01 07:40:20;;;;;;;23.37;13.30;;;;;;;3.10;100.00;98751.78;4934702;29;20242;-82
2022/12/01 07:42:48;;;;;;;23.50;14.27;;;;;;;3.08;100.00;98759.69;4934784;29;20212;-81
2022/12/01 07:45:15;;;;;;;24.23;13.63;;;;;;;3.25;100.00;98751.34;4934800;29;20208;-82
2022/12/01 07:47:43;;;;;;;22.27;12.50;;;;;;;3.18;100.00;98755.88;4934682;29;20223;-81
2022/12/01 07:50:10;;;;;;;23.07;12.87;;;;;;;3.25;100.00;98756.56;4935120;29;20324;-81
2022/12/01 07:52:37;;;;;;;24.50;13.87;;;;;;;3.30;100.00;98737.22;4934955;29;20239;-91
2022/12/01 07:55:04;;;;;;;20.47;13.07;;;;;;;3.26;100.00;98737.38;4935008;29;20212;-80
2022/12/01 07:57:30;;;;;;;23.90;13.07;;;;;;;3.24;100.00;98734.81;4935087;29;20218;-82
2022/12/01 07:59:58;;;;;;;22.50;12.90;;;;;;;3.24;100.00;98732.19;4934476;29;20243;-80
2022/12/01 08:02:24;;;;;;;22.73;12.50;;;;;;;3.32;100.00;98735.44;4934732;29;20220;-79
2022/12/01 08:04:51;;;;;;;29.20;14.17;;;;;;;3.31;100.00;98733.72;4935033;29;20228;-80
2022/12/01 08:07:17;;;;;;;25.23;14.13;;;;;;;3.31;100.00;98733.72;4934578;29;20302;-77
2022/12/01 08:09:44;;;;;;;22.83;14.33;;;;;;;3.34;100.00;98725.78;4934506;29;20246;-79
2022/12/01 08:12:11;;;;;;;23.93;13.80;;;;;;;3.47;100.00;98731.47;4934755;29;20623;-80
2022/12/01 08:14:37;;;;;;;22.97;13.37;;;;;;;3.37;100.00;98738.75;4934495;29;20212;-76
2022/12/01 08:17:05;;;;;;;23.60;13.17;;;;;;;3.37;100.00;98743.97;4934307;29;20231;-80
2022/12/01 08:19:32;;;;;;;22.97;13.20;;;;;;;3.32;100.00;98753.72;4932907;29;20581;-80
2022/12/01 08:21:58;;;;;;;22.70;12.87;;;;;;;3.36;100.00;98764.94;4934427;29;20244;-80
2022/12/01 08:24:25;;;;;;;24.30;13.33;;;;;;;3.40;100.00;98770.00;4934447;29;20216;-81
2022/12/01 08:26:51;;;;;;;23.30;12.37;;;;;;;3.39;100.00;98776.16;4933721;29;20212;-77
2022/12/01 08:29:20;;;;;;;22.33;12.63;;;;;;;3.40;100.00;98772.63;4933958;29;20594;-81
2022/12/01 08:31:47;;;;;;;23.00;12.23;;;;;;;3.36;100.00;98764.94;4933285;29;20220;-86
2022/12/01 08:34:20;;;;;;;21.60;12.80;;;;;;;3.45;100.00;98775.97;4934588;29;20690;-82
2022/12/01 08:36:47;;;;;;;24.00;15.18;;;;;;;3.50;100.00;98774.06;4932636;29;20441;-82
2022/12/01 08:39:13;;;;;;;23.03;13.47;;;;;;;3.48;100.00;98770.63;4932493;29;20228;-78
2022/12/01 08:41:40;;;;;;;23.37;13.37;;;;;;;3.48;100.00;98760.16;4933345;29;20247;-78
2022/12/01 08:44:06;;;;;;;23.00;13.33;;;;;;;3.53;100.00;98762.63;4933480;29;20223;-81
2022/12/01 08:46:35;;;;;;;21.40;12.27;;;;;;;3.44;100.00;98758.56;4932166;29;20667;-81
2022/12/01 08:49:02;;;;;;;22.30;12.63;;;;;;;3.44;100.00;98758.56;4932086;29;20247;-80
2022/12/01 08:51:31;;;;;;;23.43;12.87;;;;;;;3.46;100.00;98762.00;4933287;29;20211;-82
2022/12/01 08:53:58;;;;;;;22.97;13.23;;;;;;;3.52;100.00;98764.41;4933475;29;20212;-81
2022/12/01 08:56:27;;;;;;;22.40;12.30;;;;;;;3.52;100.00;98755.69;4932798;29;20223;-81
2022/12/01 08:58:54;;;;;;;25.20;13.83;;;;;;;3.46;100.00;98754.16;4933649;29;20239;-80
2022/12/01 09:01:21;;;;;;;21.53;12.90;;;;;;;3.54;100.00;98761.75;4936912;29;20236;-79
2022/12/01 09:04:03;;;;;;;24.17;13.70;;;;;;;3.54;100.00;98753.91;4936500;29;20216;-81
2022/12/01 09:06:32;;;;;;;23.63;13.60;;;;;;;3.53;100.00;98742.59;4937339;29;20686;-80
2022/12/01 09:08:59;;;;;;;20.60;12.10;;;;;;;3.60;100.00;98748.50;4936492;29;20719;-80
2022/12/01 09:11:36;;;;;;;22.20;13.30;;;;;;;3.62;100.00;98757.97;4937986;29;20208;-79
2022/12/01 09:14:03;;;;;;;21.27;13.07;;;;;;;3.63;100.00;98751.00;4934874;29;20215;-81
2022/12/01 09:16:29;;;;;;;25.60;15.10;;;;;;;3.66;100.00;98753.53;4936212;29;20223;-81
2022/12/01 09:18:56;;;;;;;23.97;14.00;;;;;;;3.63;100.00;98745.78;4936434;29;20239;-81
2022/12/01 09:21:25;;;;;;;22.00;12.57;;;;;;;3.58;100.00;98752.91;4935549;29;20613;-82
2022/12/01 09:23:53;;;;;;;24.43;14.30;;;;;;;3.59;100.00;98757.22;4935835;29;20642;-81
2022/12/01 09:26:20;;;;;;;22.37;13.40;;;;;;;3.60;100.00;98770.25;4935069;29;20208;-82
2022/12/01 09:28:49;;;;;;;21.53;13.27;;;;;;;3.71;100.00;98756.81;4936047;29;20360;-81
2022/12/01 09:31:17;;;;;;;22.37;14.10;;;;;;;3.66;100.00;98743.91;4937492;29;20265;-81
2022/12/01 09:33:44;;;;;;;20.97;12.67;;;;;;;3.71;100.00;98741.13;4935974;29;20220;-83
2022/12/01 09:36:10;;;;;;;22.03;12.67;;;;;;;3.64;100.00;98743.13;4937298;29;20667;-80
2022/12/01 09:38:38;;;;;;;22.10;13.37;;;;;;;3.65;100.00;98742.22;4937138;29;20215;-79
2022/12/01 09:41:13;;;;;;;24.13;13.30;;;;;;;3.67;100.00;98752.63;4935964;29;20707;-79
2022/12/01 09:43:41;;;;;;;23.10;13.37;;;;;;;3.67;100.00;98750.84;4937269;29;20222;-80
2022/12/01 09:46:13;;;;;;;22.50;13.07;;;;;;;3.63;100.00;98754.47;4935426;29;20214;-80
2022/12/01 09:48:43;;;;;;;23.33;13.43;;;;;;;3.70;100.00;98762.97;4937261;29;20240;-80
2022/12/01 09:51:14;;;;;;;23.50;13.73;;;;;;;3.70;100.00;98756.00;4936945;29;20667;-80
2022/12/01 09:53:42;;;;;;;22.53;13.23;;;;;;;3.70;100.00;98763.84;4935692;29;20235;-80
2022/12/01 09:56:20;;;;;;;22.07;13.03;;;;;;;3.76;100.00;98753.19;4936753;29;20222;-79
2022/12/01 09:58:50;;;;;;;21.77;12.40;;;;;;;3.81;100.00;98742.56;4935500;29;20585;-82
2022/12/01 10:01:18;;;;;;;21.17;12.03;;;;;;;3.86;100.00;98738.88;4937059;29;20244;-82
2022/12/01 10:03:49;;;;;;;21.27;12.93;;;;;;;3.88;100.00;98736.22;4936973;29;20220;-79
2022/12/01 10:06:21;;;;;;;22.43;13.47;;;;;;;3.83;100.00;98730.28;4935009;29;20213;-80
2022/12/01 10:08:54;;;;;;;20.90;12.47;;;;;;;3.91;100.00;98736.97;4936581;29;20239;-80
2022/12/01 10:11:35;;;;;;;22.10;13.37;;;;;;;3.91;100.00;98723.91;4935156;29;20216;-80
2022/12/01 10:14:09;;;;;;;24.10;13.53;;;;;;;3.95;100.00;98719.41;4936785;29;20216;-80
2022/12/01 10:16:43;;;;;;;21.07;12.60;;;;;;;3.90;100.00;98714.34;4936134;29;20227;-80
2022/12/01 10:19:15;;;;;;;21.17;13.10;;;;;;;3.97;100.00;98720.25;4935405;29;20232;-80
2022/12/01 10:22:09;;;;;;;23.10;13.33;;;;;;;4.00;100.00;98710.53;4936630;29;20217;-80
2022/12/01 10:24:50;;;;;;;21.10;13.23;;;;;;;4.02;100.00;98706.09;4935114;29;20601;-80
2022/12/01 10:27:29;;;;;;;21.80;11.93;;;;;;;4.04;100.00;98706.88;4936229;29;20218;-80
2022/12/01 10:30:03;;;;;;;21.57;13.37;;;;;;;4.02;100.00;98700.88;4935490;29;20247;-80
2022/12/01 10:32:39;;;;;;;21.23;13.27;;;;;;;4.12;100.00;98691.81;4936425;29;20208;-80
2022/12/01 10:35:06;;;;;;;20.87;12.60;;;;;;;4.09;100.00;98686.66;4936434;29;20219;-80
2022/12/01 10:37:32;;;;;;;22.53;13.07;;;;;;;4.04;100.00;98699.03;4934465;29;20213;-81
2022/12/01 10:39:59;;;;;;;21.70;12.63;;;;;;;4.04;100.00;98696.41;4936157;29;20583;-76
2022/12/01 10:42:32;;;;;;;23.60;12.40;;;;;;;4.16;100.00;98703.00;4935227;29;20758;-78
2022/12/01 10:45:01;;;;;;;22.13;13.27;;;;;;;4.19;100.00;98698.53;4935416;29;20676;-80
2022/12/01 10:47:28;;;;;;;21.77;13.53;;;;;;;4.20;100.00;98697.59;4935886;29;20703;-81
2022/12/01 10:49:55;;;;;;;22.27;12.93;;;;;;;4.27;100.00;98687.78;4935394;29;20232;-80
2022/12/01 10:52:40;;;;;;;23.97;13.53;;;;;;;4.21;100.00;98691.47;4933310;29;20220;-81
2022/12/01 10:55:27;;;;;;;25.97;14.27;;;;;;;4.37;100.00;98687.41;4934018;29;20220;-81
2022/12/01 10:57:57;;;;;;;21.33;12.57;;;;;;;4.30;100.00;98685.94;4934620;29;20216;-79
2022/12/01 11:00:26;;;;;;;26.30;15.07;;;;;;;4.32;100.00;98689.31;4945802;23;20236;-79
2022/12/01 11:02:53;;;;;;;25.40;14.03;;;;;;;4.34;100.00;98692.72;4933925;29;20232;-79
2022/12/01 11:05:24;;;;;;;22.30;13.23;;;;;;;4.32;100.00;98686.72;4934515;29;20217;-79
2022/12/01 11:07:51;;;;;;;20.57;13.20;;;;;;;4.28;100.00;98687.72;4933935;29;20216;-80
2022/12/01 11:10:20;;;;;;;21.17;12.17;;;;;;;4.27;100.00;98691.25;4934678;29;20237;-78
2022/12/01 11:12:56;;;;;;;21.77;12.63;;;;;;;4.26;100.00;98694.78;4934521;29;20212;-82
2022/12/01 11:15:25;;;;;;;23.67;13.57;;;;;;;4.29;100.00;98689.41;4933821;29;20239;-79
2022/12/01 11:17:58;;;;;;;21.63;12.73;;;;;;;4.28;100.00;98692.94;4934767;29;20224;-80
2022/12/01 11:20:32;;;;;;;22.40;13.13;;;;;;;4.31;100.00;98689.38;4934502;29;20801;-81
2022/12/01 11:23:24;;;;;;;21.00;13.03;;;;;;;4.37;100.00;98676.94;4935127;29;20243;-87
2022/12/01 11:26:01;;;;;;;20.73;13.03;;;;;;;4.38;100.00;98662.06;4935567;29;20213;-76
2022/12/01 11:28:29;;;;;;;23.00;12.97;;;;;;;4.37;100.00;98653.38;4935360;29;20215;-76
2022/12/01 11:30:58;;;;;;;19.93;11.93;;;;;;;4.45;99.94;98642.66;4935523;29;20229;-82
2022/12/01 11:33:25;;;;;;;20.93;13.00;;;;;;;4.51;99.77;98630.19;4935445;29;20219;-83